PH-0005 weather

Pamalican Airstrip
Cuyo, Palawan Province, Philippines

Public forecast

Using degrees Celsius for public forecast. Weather courtesy of forecast.io.

Closest aviation weather report (METAR) to Pamalican Airstrip

Report is more than 6 hours old.

Closest report is Kalibo International Airport, 98.9 nm (183.2 km) ENE. Retrieved 2020/05/06 04:00 UTC (26 days ago):

RPVK 060400Z AUTO 05009KT 020V100 CAVOK 31/27 Q1009

Closest aviation forecast (TAF) to Pamalican Airstrip

Forecast is more than 12 hours old.

Closest forecast is Kalibo International Airport, 98.9 nm (183.2 km) ENE. Retrieved 2020/05/20 12:30 UTC (12 days ago):

TAF RPVK 201100Z 2012/2112 08007KT 9999 FEW016 SCT240 TEMPO 2012/2018 14005KT 8000 -TSRA FEW015CB SCT016 BKN070